createdAt,value
2022-12-08T00:02:22.854Z,93925.19
2022-12-08T00:05:45.509Z,93918.25
2022-12-08T00:09:07.780Z,93910.31
2022-12-08T00:12:16.111Z,93915.78
2022-12-08T00:15:19.784Z,93920.63
2022-12-08T00:18:23.027Z,93915.47
2022-12-08T00:21:25.961Z,93915.16
2022-12-08T00:24:35.857Z,93912.97
2022-12-08T00:27:38.683Z,93909.84
2022-12-08T00:30:42.839Z,93915.91
2022-12-08T00:33:46.294Z,93920.78
2022-12-08T00:36:49.706Z,93914.56
2022-12-08T00:39:53.262Z,93915.59
2022-12-08T00:42:56.970Z,93915.91
2022-12-08T00:46:00.003Z,93908.69
2022-12-08T00:49:05.260Z,93910.00
2022-12-08T00:52:09.358Z,93910.28
2022-12-08T00:55:12.630Z,93907.47
2022-12-08T00:58:15.783Z,93915.09
2022-12-08T01:01:19.494Z,93908.31
2022-12-08T01:04:23.437Z,93910.50
2022-12-08T01:07:27.381Z,93906.75
2022-12-08T01:10:30.301Z,93915.91
2022-12-08T01:13:33.850Z,93916.16
2022-12-08T01:16:37.585Z,93924.75
2022-12-08T01:19:40.479Z,93929.75
2022-12-08T01:22:44.086Z,93927.50
2022-12-08T01:25:47.748Z,93937.06
2022-12-08T01:28:51.318Z,93936.00
2022-12-08T01:31:55.380Z,93937.59
2022-12-08T01:34:59.114Z,93929.34
2022-12-08T01:38:03.203Z,93927.81
2022-12-08T01:41:06.874Z,93927.94
2022-12-08T01:44:13.699Z,93937.94
2022-12-08T01:47:17.541Z,93935.88
2022-12-08T01:50:22.794Z,93928.41
2022-12-08T01:53:33.432Z,93929.69
2022-12-08T01:56:51.849Z,93926.31
2022-12-08T02:00:01.535Z,93915.19
2022-12-08T02:03:15.213Z,93922.75
2022-12-08T02:06:19.679Z,93912.00
2022-12-08T02:09:23.771Z,93909.88
2022-12-08T02:12:27.598Z,93916.84
2022-12-08T02:15:40.362Z,93921.91
2022-12-08T02:19:29.283Z,93922.75
2022-12-08T02:22:57.483Z,93920.66
2022-12-08T02:26:13.475Z,93915.66
2022-12-08T02:29:20.192Z,93922.56
2022-12-08T02:32:49.015Z,93918.56
2022-12-08T02:35:57.285Z,93922.56
2022-12-08T02:39:27.137Z,93918.91
2022-12-08T02:42:47.831Z,93910.38
2022-12-08T02:45:58.663Z,93910.25
2022-12-08T02:49:03.761Z,93921.19
2022-12-08T02:52:13.069Z,93915.09
2022-12-08T02:55:19.797Z,93909.53
2022-12-08T02:58:44.264Z,93910.16
2022-12-08T03:02:03.407Z,93909.06
2022-12-08T03:05:13.141Z,93918.88
2022-12-08T03:08:38.726Z,93913.16
2022-12-08T03:12:10.915Z,93901.22
2022-12-08T03:15:17.573Z,93906.97
2022-12-08T03:18:27.092Z,93899.75
2022-12-08T03:21:32.463Z,93902.88
2022-12-08T03:24:39.284Z,93900.25
2022-12-08T03:27:43.796Z,93897.31
2022-12-08T03:30:50.522Z,93902.06
2022-12-08T03:33:58.148Z,93891.44
2022-12-08T03:37:02.676Z,93898.19
2022-12-08T03:40:08.009Z,93897.44
2022-12-08T03:43:11.769Z,93893.97
2022-12-08T03:49:23.381Z,93884.94
2022-12-08T03:52:27.419Z,93876.00
2022-12-08T03:55:30.348Z,93881.19
2022-12-08T03:58:37.446Z,93876.56
2022-12-08T04:01:40.580Z,93879.16
2022-12-08T04:04:44.776Z,93875.09
2022-12-08T04:07:48.704Z,93873.72
2022-12-08T04:10:52.716Z,93863.53
2022-12-08T04:13:56.575Z,93860.78
2022-12-08T04:17:00.253Z,93861.00
2022-12-08T04:20:04.389Z,93862.75
2022-12-08T04:23:09.736Z,93867.47
2022-12-08T04:26:15.252Z,93858.84
2022-12-08T04:29:18.671Z,93872.19
2022-12-08T04:32:22.700Z,93868.00
2022-12-08T04:35:26.073Z,93867.84
2022-12-08T04:38:29.128Z,93871.59
2022-12-08T04:41:32.617Z,93863.28
2022-12-08T04:44:36.137Z,93866.22
2022-12-08T04:47:39.126Z,93858.44
2022-12-08T04:50:43.818Z,93868.50
2022-12-08T04:53:47.437Z,93866.63
2022-12-08T04:56:50.600Z,93865.25
2022-12-08T04:59:54.440Z,93873.94
2022-12-08T05:02:57.516Z,93853.38
2022-12-08T05:06:01.549Z,93868.94
2022-12-08T05:09:05.273Z,93859.72
2022-12-08T05:12:09.496Z,93863.97
2022-12-08T05:15:13.121Z,93866.47
2022-12-08T05:18:17.361Z,93864.56
2022-12-08T05:21:20.295Z,93857.75
2022-12-08T05:24:24.070Z,93857.63
2022-12-08T05:27:28.256Z,93859.03
2022-12-08T05:30:34.056Z,93855.66
2022-12-08T05:33:37.095Z,93847.41
2022-12-08T05:36:40.696Z,93850.06
2022-12-08T05:39:44.052Z,93850.88
2022-12-08T05:42:47.090Z,93855.88
2022-12-08T05:45:51.912Z,93847.22
2022-12-08T05:48:55.585Z,93854.06
2022-12-08T05:51:59.359Z,93858.44
2022-12-08T05:55:03.778Z,93859.31
2022-12-08T05:58:08.378Z,93848.63
2022-12-08T06:01:32.791Z,93848.81
2022-12-08T06:04:36.916Z,93864.09
2022-12-08T06:07:40.305Z,93858.56
2022-12-08T06:10:45.697Z,93862.44
2022-12-08T06:13:49.925Z,93858.16
2022-12-08T06:16:53.724Z,93859.56
2022-12-08T06:19:57.141Z,93854.19
2022-12-08T06:23:00.190Z,93845.47
2022-12-08T06:26:13.638Z,93850.97
2022-12-08T06:29:16.538Z,93851.94
2022-12-08T06:32:25.824Z,93855.91
2022-12-08T06:35:30.350Z,93854.84
2022-12-08T06:38:35.640Z,93849.22
2022-12-08T06:41:59.840Z,93847.75
2022-12-08T06:45:03.959Z,93846.00
2022-12-08T06:48:07.245Z,93849.47
2022-12-08T06:51:19.372Z,93850.50
2022-12-08T06:54:23.537Z,93836.66
2022-12-08T06:57:27.275Z,93848.75
2022-12-08T07:00:31.200Z,93839.41
2022-12-08T07:03:35.159Z,93837.72
2022-12-08T07:06:39.122Z,93841.91
2022-12-08T07:09:42.964Z,93839.72
2022-12-08T07:12:46.698Z,93839.38
2022-12-08T07:15:50.899Z,93838.13
2022-12-08T07:18:54.656Z,93833.44
2022-12-08T07:21:58.654Z,93834.66
2022-12-08T07:25:02.336Z,93832.59
2022-12-08T07:28:10.132Z,93830.16
2022-12-08T07:31:22.277Z,93832.56
2022-12-08T07:34:26.209Z,93834.31
2022-12-08T07:37:29.818Z,93838.41
2022-12-08T07:40:32.992Z,93833.47
2022-12-08T07:43:36.611Z,93845.63
2022-12-08T07:46:40.636Z,93849.91
2022-12-08T07:49:44.113Z,93841.28
2022-12-08T07:52:47.672Z,93839.91
2022-12-08T07:55:51.318Z,93835.38
2022-12-08T07:58:55.261Z,93846.38
2022-12-08T08:02:21.378Z,93842.84
2022-12-08T08:05:23.983Z,93847.53
2022-12-08T08:08:27.188Z,93832.75
2022-12-08T08:11:31.255Z,93845.19
2022-12-08T08:14:35.305Z,93849.88
2022-12-08T08:17:39.464Z,93846.91
2022-12-08T08:20:43.059Z,93844.88
2022-12-08T08:23:46.371Z,93838.28
2022-12-08T08:26:49.232Z,93843.00
2022-12-08T08:29:52.545Z,93836.44
2022-12-08T08:32:55.814Z,93836.13
2022-12-08T08:36:01.602Z,93830.03
2022-12-08T08:39:05.851Z,93835.63
2022-12-08T08:42:11.351Z,93845.84
2022-12-08T08:45:15.343Z,93838.81
2022-12-08T08:48:18.369Z,93845.56
2022-12-08T08:51:21.840Z,93836.59
2022-12-08T08:54:25.998Z,93836.50
2022-12-08T08:57:29.069Z,93836.13
2022-12-08T09:00:32.507Z,93842.31
2022-12-08T09:03:38.388Z,93842.94
2022-12-08T09:06:43.749Z,93837.47
2022-12-08T09:09:49.240Z,93839.41
2022-12-08T09:12:55.232Z,93829.97
2022-12-08T09:16:05.749Z,93830.78
2022-12-08T09:19:09.177Z,93831.53
2022-12-08T09:22:12.451Z,93829.94
2022-12-08T09:25:17.669Z,93835.94
2022-12-08T09:28:23.521Z,93830.31
2022-12-08T09:31:27.093Z,93830.19
2022-12-08T09:34:34.091Z,93840.81
2022-12-08T09:37:37.798Z,93838.88
2022-12-08T09:40:53.389Z,93842.13
2022-12-08T09:44:04.763Z,93836.47
2022-12-08T09:47:38.121Z,93830.69
2022-12-08T09:50:47.950Z,93830.56
2022-12-08T09:54:03.088Z,93827.16
2022-12-08T09:57:15.086Z,93829.22
2022-12-08T10:00:18.983Z,93833.28
2022-12-08T10:03:30.009Z,93834.78
2022-12-08T10:07:19.564Z,93827.25
2022-12-08T10:10:25.145Z,93830.50
2022-12-08T10:13:56.262Z,93828.41
2022-12-08T10:17:06.997Z,93821.66
2022-12-08T10:20:22.398Z,93826.25
2022-12-08T10:23:36.228Z,93827.28
2022-12-08T10:26:41.942Z,93837.31
2022-12-08T10:29:44.903Z,93839.44
2022-12-08T10:32:51.979Z,93845.19
2022-12-08T10:35:59.241Z,93842.69
2022-12-08T10:39:02.202Z,93843.41
2022-12-08T10:42:23.736Z,93835.31
2022-12-08T10:45:37.952Z,93835.31
2022-12-08T10:48:56.304Z,93838.13
2022-12-08T10:51:59.321Z,93837.41
2022-12-08T10:55:02.645Z,93845.94
2022-12-08T10:58:05.714Z,93851.00
2022-12-08T11:01:14.458Z,93842.00
2022-12-08T11:04:20.967Z,93834.94
2022-12-08T11:07:24.392Z,93834.50
2022-12-08T11:10:43.048Z,93830.78
2022-12-08T11:13:49.950Z,93838.63
2022-12-08T11:16:56.170Z,93842.47
2022-12-08T11:20:11.548Z,93846.00
2022-12-08T11:23:23.288Z,93843.06
2022-12-08T11:26:34.863Z,93846.00
2022-12-08T11:29:38.815Z,93849.38
2022-12-08T11:32:48.509Z,93849.09
2022-12-08T11:36:04.079Z,93852.34
2022-12-08T11:39:14.266Z,93851.75
2022-12-08T11:42:25.208Z,93844.22
2022-12-08T11:45:33.424Z,93851.59
2022-12-08T11:49:11.648Z,93845.56
2022-12-08T11:52:30.520Z,93849.25
2022-12-08T11:55:53.350Z,93846.13
2022-12-08T14:20:46.536Z,93829.41
2022-12-08T14:23:56.553Z,93835.72
2022-12-08T14:27:03.778Z,93840.22
2022-12-08T14:30:24.917Z,93842.56
2022-12-08T14:33:29.060Z,93841.97
2022-12-08T14:36:34.211Z,93839.78
2022-12-08T14:39:37.642Z,93833.28
2022-12-08T14:43:07.001Z,93848.63
2022-12-08T14:46:22.932Z,93841.53
2022-12-08T14:49:34.820Z,93839.78
2022-12-08T14:52:45.558Z,93843.16
2022-12-08T14:55:50.559Z,93840.94
2022-12-08T14:59:29.733Z,93845.38
2022-12-08T15:02:33.309Z,93841.38
2022-12-08T15:05:37.258Z,93847.72
2022-12-08T15:08:59.812Z,93844.03
2022-12-08T15:12:06.052Z,93852.31
2022-12-08T15:15:09.703Z,93851.28
2022-12-08T15:18:18.493Z,93852.47
2022-12-08T15:21:31.615Z,93853.78
2022-12-08T15:24:36.463Z,93845.66
2022-12-08T15:27:49.805Z,93848.75
2022-12-08T15:30:55.411Z,93842.88
2022-12-08T15:33:59.107Z,93857.00
2022-12-08T15:37:05.292Z,93843.59
2022-12-08T15:40:15.962Z,93848.91
2022-12-08T15:43:19.830Z,93841.50
2022-12-08T15:46:23.569Z,93838.28
2022-12-08T15:49:27.680Z,93846.97
2022-12-08T15:52:30.580Z,93847.09
2022-12-08T15:55:38.770Z,93851.22
2022-12-08T15:58:53.504Z,93851.19
2022-12-08T16:01:59.020Z,93847.94
2022-12-08T16:12:09.836Z,93845.44
2022-12-08T16:18:40.998Z,93851.16
2022-12-08T16:25:18.203Z,93841.31
2022-12-08T16:31:45.975Z,93840.88
2022-12-08T16:34:50.714Z,93833.09
2022-12-08T16:37:53.769Z,93830.00
2022-12-08T16:41:15.296Z,93833.38
2022-12-08T16:44:18.376Z,93843.97
2022-12-08T16:47:22.421Z,93843.69
2022-12-08T16:50:30.304Z,93834.41
2022-12-08T16:53:33.567Z,93845.44
2022-12-08T16:56:37.006Z,93837.63
2022-12-08T16:59:40.873Z,93844.50
2022-12-08T17:02:44.158Z,93831.41
2022-12-08T17:05:47.157Z,93820.78
2022-12-08T17:08:50.881Z,93814.34
2022-12-08T17:11:58.851Z,93815.13
2022-12-08T17:15:11.654Z,93822.31
2022-12-08T17:18:15.235Z,93823.66
2022-12-08T17:21:19.444Z,93842.34
2022-12-08T17:24:23.646Z,93838.47
2022-12-08T17:27:27.441Z,93842.00
2022-12-08T17:30:31.078Z,93840.44
2022-12-08T17:33:35.095Z,93831.00
2022-12-08T17:36:38.523Z,93826.44
2022-12-08T17:39:41.425Z,93845.31
2022-12-08T17:42:45.299Z,93845.16
2022-12-08T17:45:49.676Z,93844.41
2022-12-08T17:48:52.770Z,93844.25
2022-12-08T17:51:59.364Z,93831.91
2022-12-08T17:55:03.580Z,93826.44
2022-12-08T17:58:07.685Z,93836.31
2022-12-08T18:01:12.187Z,93840.59
2022-12-08T18:04:15.391Z,93834.84
2022-12-08T18:07:18.404Z,93847.66
2022-12-08T18:10:22.130Z,93839.56
2022-12-08T18:13:25.861Z,93833.38
2022-12-08T18:16:29.638Z,93834.09
2022-12-08T18:19:32.669Z,93841.91
2022-12-08T18:22:36.680Z,93842.06
2022-12-08T18:25:40.518Z,93845.88
2022-12-08T18:28:44.719Z,93852.03
2022-12-08T18:31:48.545Z,93859.47
2022-12-08T18:34:52.445Z,93832.25
2022-12-08T18:37:56.283Z,93831.06
2022-12-08T18:41:06.180Z,93837.84
2022-12-08T18:44:09.123Z,93856.53
2022-12-08T18:47:12.063Z,93847.41
2022-12-08T18:50:15.965Z,93843.91
2022-12-08T18:53:19.989Z,93847.59
2022-12-08T18:56:29.329Z,93857.03
2022-12-08T18:59:32.875Z,93865.84
2022-12-08T19:02:36.995Z,93853.00
2022-12-08T19:05:39.955Z,93855.63
2022-12-08T19:08:43.829Z,93865.81
2022-12-08T19:11:46.785Z,93869.38
2022-12-08T19:14:50.084Z,93867.28
2022-12-08T19:17:52.912Z,93846.97
2022-12-08T19:20:57.313Z,93857.91
2022-12-08T19:24:01.501Z,93850.34
2022-12-08T19:27:06.607Z,93861.63
2022-12-08T19:30:11.492Z,93855.88
2022-12-08T19:33:15.066Z,93850.59
2022-12-08T19:36:20.968Z,93854.13
2022-12-08T19:39:43.704Z,93857.34
2022-12-08T19:43:05.852Z,93856.47
2022-12-08T19:46:09.580Z,93855.28
2022-12-08T19:49:12.645Z,93846.13
2022-12-08T19:52:16.395Z,93853.16
2022-12-08T19:55:19.770Z,93852.03
2022-12-08T19:58:23.843Z,93851.56
2022-12-08T20:01:26.700Z,93849.06
2022-12-08T20:04:29.927Z,93833.31
2022-12-08T20:07:33.395Z,93835.13
2022-12-08T20:10:40.068Z,93826.34
2022-12-08T20:13:45.170Z,93830.34
2022-12-08T20:16:49.183Z,93835.34
2022-12-08T20:19:52.355Z,93829.59
2022-12-08T20:22:55.353Z,93836.16
2022-12-08T20:25:58.428Z,93826.56
2022-12-08T20:29:02.018Z,93813.06
2022-12-08T20:32:05.589Z,93817.06
2022-12-08T20:35:09.727Z,93814.97
2022-12-08T20:38:14.253Z,93828.03
2022-12-08T20:41:17.647Z,93836.63
2022-12-08T20:44:22.110Z,93835.06
2022-12-08T20:47:25.225Z,93841.56
2022-12-08T20:50:29.315Z,93828.19
2022-12-08T20:53:32.481Z,93826.97
2022-12-08T20:56:36.157Z,93828.09
2022-12-08T20:59:39.133Z,93824.88
2022-12-08T21:02:48.578Z,93828.91
2022-12-08T21:05:53.558Z,93837.56
2022-12-08T21:08:57.021Z,93837.25
2022-12-08T21:12:01.084Z,93839.34
2022-12-08T21:15:04.525Z,93823.66
2022-12-08T21:18:07.994Z,93823.34
2022-12-08T21:21:15.156Z,93820.56
2022-12-08T21:24:19.004Z,93805.66
2022-12-08T21:27:22.809Z,93800.47
2022-12-08T21:30:26.101Z,93805.31
2022-12-08T21:33:29.877Z,93814.44
2022-12-08T21:36:33.760Z,93809.41
2022-12-08T21:39:37.965Z,93809.78
2022-12-08T21:42:47.228Z,93809.53
2022-12-08T21:45:50.234Z,93825.81
2022-12-08T21:48:53.766Z,93825.53
2022-12-08T21:51:57.023Z,93832.28
2022-12-08T21:55:01.006Z,93818.50
2022-12-08T21:58:04.730Z,93818.94
2022-12-08T22:01:11.939Z,93822.81
2022-12-08T22:04:18.836Z,93833.66
2022-12-08T22:07:22.499Z,93816.56
2022-12-08T22:10:26.127Z,93820.72
2022-12-08T22:13:30.013Z,93827.25
2022-12-08T22:16:33.191Z,93833.28
2022-12-08T22:19:36.495Z,93821.59
2022-12-08T22:22:39.976Z,93819.41
2022-12-08T22:25:44.073Z,93827.94
2022-12-08T22:28:47.956Z,93829.28
2022-12-08T22:31:50.924Z,93839.00
2022-12-08T22:34:54.075Z,93837.09
2022-12-08T22:37:56.917Z,93835.59
2022-12-08T22:41:00.453Z,93838.72
2022-12-08T22:44:07.215Z,93844.84
2022-12-08T22:47:10.319Z,93845.00
2022-12-08T22:50:13.243Z,93833.78
2022-12-08T22:53:16.246Z,93840.53
2022-12-08T22:56:20.866Z,93836.13
2022-12-08T22:59:25.373Z,93837.97
2022-12-08T23:02:29.338Z,93834.19
2022-12-08T23:05:37.059Z,93846.75
2022-12-08T23:08:40.658Z,93846.47
2022-12-08T23:11:44.790Z,93849.53
2022-12-08T23:14:48.453Z,93850.16
2022-12-08T23:17:52.092Z,93853.38
2022-12-08T23:20:55.171Z,93853.66
2022-12-08T23:24:00.096Z,93850.78
2022-12-08T23:27:03.715Z,93852.69
2022-12-08T23:30:08.365Z,93858.41
2022-12-08T23:33:11.570Z,93859.31
2022-12-08T23:36:15.751Z,93860.03
2022-12-08T23:39:19.464Z,93865.34
2022-12-08T23:42:22.534Z,93867.19
2022-12-08T23:45:26.449Z,93871.91
2022-12-08T23:48:29.692Z,93870.34
2022-12-08T23:51:33.752Z,93880.78
2022-12-08T23:54:37.397Z,93880.78
2022-12-08T23:57:41.070Z,93878.09
